createdAt,value
2019-04-07T00:00:41.775Z,15.97
2019-04-07T00:03:08.493Z,16.97
2019-04-07T00:05:35.668Z,15.97
2019-04-07T00:08:03.358Z,15.90
2019-04-07T00:10:30.440Z,15.27
2019-04-07T00:12:57.394Z,14.80
2019-04-07T00:15:24.219Z,14.90
2019-04-07T00:17:51.073Z,14.90
2019-04-07T00:20:17.754Z,14.83
2019-04-07T00:22:44.377Z,13.53
2019-04-07T00:25:11.863Z,14.80
2019-04-07T00:27:39.155Z,14.47
2019-04-07T00:30:06.839Z,15.27
2019-04-07T00:32:35.007Z,14.27
2019-04-07T00:35:05.490Z,14.40
2019-04-07T00:37:32.738Z,15.20
2019-04-07T00:39:59.698Z,13.53
2019-04-07T00:42:27.371Z,14.17
2019-04-07T00:44:55.516Z,13.87
2019-04-07T00:47:22.067Z,14.37
2019-04-07T00:49:48.626Z,13.73
2019-04-07T00:52:17.327Z,14.23
2019-04-07T00:54:44.216Z,14.23
2019-04-07T00:57:10.999Z,14.27
2019-04-07T00:59:37.587Z,13.77
2019-04-07T01:02:04.472Z,13.50
2019-04-07T01:04:31.031Z,13.53
2019-04-07T01:06:57.620Z,13.33
2019-04-07T01:09:24.538Z,13.13
2019-04-07T01:11:52.260Z,13.70
2019-04-07T01:14:19.298Z,13.47
2019-04-07T01:16:46.143Z,14.00
2019-04-07T01:19:13.371Z,14.30
2019-04-07T01:21:40.548Z,13.30
2019-04-07T01:24:07.273Z,13.90
2019-04-07T01:26:34.052Z,14.90
2019-04-07T01:29:01.399Z,14.83
2019-04-07T01:31:28.773Z,13.60
2019-04-07T01:33:55.371Z,14.23
2019-04-07T01:36:22.588Z,14.07
2019-04-07T01:38:49.446Z,14.90
2019-04-07T01:41:18.604Z,14.27
2019-04-07T01:43:48.082Z,14.37
2019-04-07T01:46:17.514Z,14.80
2019-04-07T01:48:46.829Z,14.87
2019-04-07T01:51:15.749Z,14.93
2019-04-07T01:53:44.598Z,13.97
2019-04-07T01:56:14.041Z,14.00
2019-04-07T01:58:42.882Z,14.73
2019-04-07T02:01:12.044Z,15.53
2019-04-07T02:03:41.925Z,14.43
2019-04-07T02:06:12.015Z,14.50
2019-04-07T02:08:41.722Z,14.30
2019-04-07T02:11:10.619Z,14.27
2019-04-07T02:13:40.450Z,14.87
2019-04-07T02:16:10.280Z,14.27
2019-04-07T02:18:38.917Z,15.17
2019-04-07T02:21:08.444Z,15.30
2019-04-07T02:23:37.275Z,14.37
2019-04-07T02:26:06.053Z,14.93
2019-04-07T02:28:35.045Z,13.77
2019-04-07T02:31:06.101Z,15.00
2019-04-07T02:33:35.002Z,14.83
2019-04-07T02:36:15.703Z,13.90
2019-04-07T02:38:34.570Z,13.47
2019-04-07T02:41:04.216Z,14.93
2019-04-07T02:43:33.930Z,14.37
2019-04-07T02:46:02.806Z,14.07
2019-04-07T02:48:32.240Z,14.70
2019-04-07T02:51:01.311Z,14.63
2019-04-07T02:53:30.805Z,15.27
2019-04-07T02:55:57.814Z,15.23
2019-04-07T02:58:27.157Z,16.63
2019-04-07T03:00:56.219Z,16.00
2019-04-07T03:03:24.983Z,18.40
2019-04-07T03:05:55.076Z,19.23
2019-04-07T03:08:25.067Z,20.30
2019-04-07T03:10:55.482Z,21.83
2019-04-07T03:13:24.588Z,22.83
2019-04-07T03:15:53.470Z,23.23
2019-04-07T03:18:26.246Z,27.10
2019-04-07T03:20:53.836Z,24.03
2019-04-07T03:23:22.783Z,21.77
2019-04-07T03:25:51.345Z,20.17
2019-04-07T03:28:19.941Z,19.03
2019-04-07T03:30:48.939Z,20.37
2019-04-07T03:33:21.177Z,20.87
2019-04-07T03:35:50.952Z,21.53
2019-04-07T03:38:19.014Z,21.63
2019-04-07T03:40:48.202Z,21.90
2019-04-07T03:43:17.716Z,17.40
2019-04-07T03:45:46.718Z,18.73
2019-04-07T03:48:15.795Z,18.70
2019-04-07T03:50:44.825Z,17.57
2019-04-07T03:53:13.611Z,16.30
2019-04-07T03:55:42.427Z,15.70
2019-04-07T03:58:12.203Z,15.17
2019-04-07T04:00:45.217Z,19.33
2019-04-07T04:03:14.944Z,22.67
2019-04-07T04:05:45.166Z,21.30
2019-04-07T04:08:13.983Z,21.50
2019-04-07T04:10:43.531Z,19.30
2019-04-07T04:13:12.349Z,19.40
2019-04-07T04:15:41.540Z,19.50
2019-04-07T04:18:08.298Z,18.73
2019-04-07T04:20:34.914Z,19.03
2019-04-07T04:23:01.531Z,16.83
2019-04-07T04:25:28.354Z,17.20
2019-04-07T04:27:55.110Z,16.67
2019-04-07T04:30:21.783Z,17.53
2019-04-07T04:32:48.514Z,17.20
2019-04-07T04:35:15.090Z,17.27
2019-04-07T04:37:48.205Z,20.07
2019-04-07T04:40:11.374Z,23.53
2019-04-07T04:42:37.989Z,21.40
2019-04-07T04:45:08.037Z,18.93
2019-04-07T04:47:35.079Z,17.30
2019-04-07T04:50:06.700Z,19.50
2019-04-07T04:52:34.777Z,19.83
2019-04-07T04:55:02.028Z,17.37
2019-04-07T04:57:29.019Z,16.63
2019-04-07T04:59:55.975Z,15.87
2019-04-07T05:02:23.562Z,14.37
2019-04-07T05:04:50.540Z,15.17
2019-04-07T05:07:17.138Z,15.73
2019-04-07T05:09:48.874Z,15.80
2019-04-07T05:12:12.811Z,15.60
2019-04-07T05:14:40.073Z,14.40
2019-04-07T05:17:07.389Z,14.27
2019-04-07T05:19:34.443Z,15.43
2019-04-07T05:22:01.362Z,14.87
2019-04-07T05:24:28.411Z,14.47
2019-04-07T05:26:55.812Z,15.57
2019-04-07T05:29:22.844Z,14.13
2019-04-07T05:31:50.298Z,14.33
2019-04-07T05:34:20.408Z,14.27
2019-04-07T05:36:45.799Z,14.47
2019-04-07T05:39:12.770Z,15.37
2019-04-07T05:41:39.600Z,14.43
2019-04-07T05:44:06.398Z,15.07
2019-04-07T05:46:33.558Z,14.77
2019-04-07T05:49:00.581Z,15.07
2019-04-07T05:51:30.041Z,15.20
2019-04-07T05:53:55.975Z,15.13
2019-04-07T05:56:25.889Z,16.80
2019-04-07T05:58:51.705Z,15.13
2019-04-07T06:01:22.574Z,16.37
2019-04-07T06:03:47.888Z,16.27
2019-04-07T06:06:14.872Z,16.03
2019-04-07T06:08:42.241Z,15.40
2019-04-07T06:11:08.947Z,15.33
2019-04-07T06:13:35.619Z,16.67
2019-04-07T06:16:03.053Z,16.97
2019-04-07T06:18:33.363Z,14.83
2019-04-07T06:20:58.612Z,16.57
2019-04-07T06:23:28.564Z,16.27
2019-04-07T06:25:57.164Z,16.27
2019-04-07T06:28:22.762Z,16.07
2019-04-07T06:30:49.590Z,16.77
2019-04-07T06:33:16.358Z,16.33
2019-04-07T06:35:44.993Z,15.77
2019-04-07T06:38:12.274Z,15.73
2019-04-07T06:40:39.330Z,16.30
2019-04-07T06:43:06.344Z,17.37
2019-04-07T06:45:36.127Z,15.80
2019-04-07T06:48:07.715Z,16.13
2019-04-07T06:50:45.462Z,16.73
2019-04-07T06:53:10.600Z,17.40
2019-04-07T06:55:36.721Z,15.90
2019-04-07T06:58:07.559Z,16.37
2019-04-07T07:00:36.457Z,18.67
2019-04-07T07:03:05.325Z,17.63
2019-04-07T07:05:35.985Z,18.63
2019-04-07T07:08:05.032Z,17.73
2019-04-07T07:10:37.736Z,18.93
2019-04-07T07:13:09.408Z,18.30
2019-04-07T07:15:36.423Z,19.97
2019-04-07T07:18:05.784Z,18.93
2019-04-07T07:20:34.438Z,20.97
2019-04-07T07:23:03.880Z,19.27
2019-04-07T07:25:32.160Z,33.00
2019-04-07T07:28:01.582Z,24.03
2019-04-07T07:30:28.473Z,20.10
2019-04-07T07:32:55.277Z,19.97
2019-04-07T07:35:22.356Z,19.70
2019-04-07T07:37:50.022Z,19.20
2019-04-07T07:40:18.330Z,18.30
2019-04-07T07:42:48.649Z,18.87
2019-04-07T07:45:14.233Z,18.47
2019-04-07T07:47:41.582Z,17.67
2019-04-07T07:50:10.221Z,17.40
2019-04-07T07:52:37.662Z,18.00
2019-04-07T07:55:06.089Z,16.87
2019-04-07T07:57:32.819Z,16.13
2019-04-07T08:00:00.287Z,15.63
2019-04-07T08:02:29.030Z,15.10
2019-04-07T08:04:58.387Z,14.60
2019-04-07T08:07:24.743Z,14.30
2019-04-07T08:09:54.062Z,14.27
2019-04-07T08:12:20.640Z,15.80
2019-04-07T08:14:50.398Z,14.60
2019-04-07T08:17:17.204Z,14.43
2019-04-07T08:19:45.406Z,16.63
2019-04-07T08:22:25.329Z,14.97
2019-04-07T08:24:42.035Z,15.53
2019-04-07T08:27:10.506Z,14.37
2019-04-07T08:29:39.021Z,14.10
2019-04-07T08:32:06.608Z,14.27
2019-04-07T08:34:33.473Z,13.47
2019-04-07T08:37:00.854Z,14.27
2019-04-07T08:39:32.376Z,11.83
2019-04-07T08:41:57.219Z,11.87
2019-04-07T08:44:27.439Z,12.10
2019-04-07T08:46:52.941Z,11.60
2019-04-07T08:49:23.696Z,12.03
2019-04-07T08:51:48.526Z,12.73
2019-04-07T08:54:16.930Z,12.63
2019-04-07T08:56:43.687Z,11.90
2019-04-07T08:59:13.901Z,12.10
2019-04-07T09:01:38.946Z,10.40
2019-04-07T09:04:09.359Z,12.17
2019-04-07T09:06:36.206Z,11.03
2019-04-07T09:09:07.915Z,9.60
2019-04-07T09:11:34.844Z,10.17
2019-04-07T09:14:04.197Z,9.93
2019-04-07T09:16:32.589Z,10.77
2019-04-07T09:19:04.976Z,11.53
2019-04-07T09:21:38.726Z,10.00
2019-04-07T09:24:02.530Z,10.73
2019-04-07T09:26:31.127Z,9.60
2019-04-07T09:28:59.613Z,9.37
2019-04-07T09:31:28.295Z,9.63
2019-04-07T09:33:58.663Z,10.20
2019-04-07T09:36:27.653Z,9.13
2019-04-07T09:39:01.435Z,9.60
2019-04-07T09:41:29.525Z,9.43
2019-04-07T09:44:01.147Z,9.70
2019-04-07T09:46:29.048Z,9.53
2019-04-07T09:48:57.700Z,9.30
2019-04-07T09:51:26.558Z,9.87
2019-04-07T09:53:55.653Z,10.07
2019-04-07T09:56:29.191Z,8.30
2019-04-07T09:58:55.617Z,8.80
2019-04-07T10:01:27.822Z,8.80
2019-04-07T10:03:55.553Z,9.73
2019-04-07T10:06:27.628Z,9.43
2019-04-07T10:08:58.883Z,8.50
2019-04-07T10:11:28.517Z,9.17
2019-04-07T10:13:57.781Z,9.83
2019-04-07T10:16:27.040Z,9.40
2019-04-07T10:18:57.652Z,9.10
2019-04-07T10:21:26.487Z,8.03
2019-04-07T10:23:55.303Z,9.50
2019-04-07T10:26:24.399Z,10.03
2019-04-07T10:28:53.246Z,8.97
2019-04-07T10:31:22.446Z,10.17
2019-04-07T10:33:51.487Z,9.90
2019-04-07T10:36:20.642Z,10.03
2019-04-07T10:38:51.453Z,10.17
2019-04-07T10:41:20.738Z,10.33
2019-04-07T10:43:50.287Z,8.87
2019-04-07T10:46:19.121Z,9.70
2019-04-07T10:48:47.771Z,10.00
2019-04-07T10:51:17.483Z,11.43
2019-04-07T10:53:46.243Z,10.47
2019-04-07T10:56:14.733Z,9.53
2019-04-07T10:58:43.615Z,9.30
2019-04-07T11:01:12.631Z,10.73
2019-04-07T11:03:41.327Z,10.07
2019-04-07T11:06:09.895Z,9.33
2019-04-07T11:08:38.416Z,9.70
2019-04-07T11:11:07.879Z,9.33
2019-04-07T11:13:36.520Z,8.50
2019-04-07T11:16:08.146Z,9.63
2019-04-07T11:18:36.740Z,9.63
2019-04-07T11:21:05.546Z,9.13
2019-04-07T11:23:34.852Z,9.90
2019-04-07T11:26:04.556Z,9.30
2019-04-07T11:28:34.083Z,8.47
2019-04-07T11:31:02.566Z,10.10
2019-04-07T11:33:31.914Z,9.67
2019-04-07T11:36:00.708Z,7.97
2019-04-07T11:38:32.289Z,8.70
2019-04-07T11:41:02.554Z,8.53
2019-04-07T11:43:32.534Z,8.93
2019-04-07T11:46:03.274Z,8.93
2019-04-07T11:48:33.104Z,8.57
2019-04-07T11:51:02.102Z,7.80
2019-04-07T11:53:30.775Z,8.60
2019-04-07T11:56:01.476Z,8.07
2019-04-07T11:58:33.218Z,6.50
2019-04-07T12:01:00.722Z,8.33
2019-04-07T12:03:29.948Z,8.70
2019-04-07T12:05:59.792Z,8.37
2019-04-07T12:08:33.390Z,9.50
2019-04-07T12:11:02.834Z,9.10
2019-04-07T12:13:31.284Z,8.53
2019-04-07T12:16:00.410Z,8.70
2019-04-07T12:18:29.780Z,7.73
2019-04-07T12:21:02.486Z,7.10
2019-04-07T12:23:29.182Z,7.53
2019-04-07T12:25:57.894Z,8.33
2019-04-07T12:28:26.833Z,8.33
2019-04-07T12:30:56.364Z,8.50
2019-04-07T12:33:25.308Z,8.23
2019-04-07T12:35:56.039Z,8.50
2019-04-07T12:38:25.267Z,8.13
2019-04-07T12:41:03.986Z,7.90
2019-04-07T12:43:24.976Z,8.00
2019-04-07T12:45:53.756Z,7.63
2019-04-07T12:48:23.105Z,7.90
2019-04-07T12:50:52.339Z,8.10
2019-04-07T12:53:21.916Z,7.47
2019-04-07T12:55:57.581Z,8.60
2019-04-07T12:58:21.457Z,7.97
2019-04-07T13:00:57.771Z,6.33
2019-04-07T13:03:21.154Z,7.93
2019-04-07T13:05:50.895Z,8.47
2019-04-07T13:08:22.590Z,8.13
2019-04-07T13:10:51.177Z,8.37
2019-04-07T13:13:22.280Z,7.90
2019-04-07T13:15:51.284Z,7.93
2019-04-07T13:18:20.571Z,6.87
2019-04-07T13:20:51.053Z,7.20
2019-04-07T13:23:19.795Z,7.73
2019-04-07T13:25:53.173Z,8.50
2019-04-07T13:28:19.543Z,6.63
2019-04-07T13:30:48.830Z,7.80
2019-04-07T13:33:20.390Z,7.87
2019-04-07T13:35:48.880Z,7.17
2019-04-07T13:38:17.625Z,7.93
2019-04-07T13:40:47.257Z,6.60
2019-04-07T13:43:16.557Z,8.47
2019-04-07T13:45:46.288Z,8.10
2019-04-07T13:48:17.556Z,7.90
2019-04-07T13:50:44.954Z,7.60
2019-04-07T13:53:14.558Z,7.73
2019-04-07T13:55:44.173Z,7.80
2019-04-07T13:58:14.039Z,7.87
2019-04-07T14:00:42.940Z,7.60
2019-04-07T14:03:14.523Z,7.50
2019-04-07T14:05:43.184Z,7.53
2019-04-07T14:08:11.817Z,7.73
2019-04-07T14:10:39.331Z,7.77
2019-04-07T14:13:11.002Z,7.47
2019-04-07T14:15:39.623Z,7.07
2019-04-07T14:18:08.971Z,7.97
2019-04-07T14:20:38.657Z,9.00
2019-04-07T14:23:08.465Z,7.87
2019-04-07T14:25:37.533Z,7.63
2019-04-07T14:28:06.155Z,8.00
2019-04-07T14:30:35.446Z,8.17
2019-04-07T14:33:04.607Z,7.57
2019-04-07T14:35:33.607Z,7.80
2019-04-07T14:38:02.658Z,7.23
2019-04-07T14:40:31.865Z,7.73
2019-04-07T14:43:01.144Z,7.53
2019-04-07T14:45:29.992Z,7.20
2019-04-07T14:48:02.160Z,7.93
2019-04-07T14:50:32.092Z,8.20
2019-04-07T14:53:00.940Z,7.43
2019-04-07T14:55:30.287Z,8.20
2019-04-07T14:57:59.059Z,7.93
2019-04-07T15:00:28.121Z,7.73
2019-04-07T15:02:55.450Z,7.63
2019-04-07T15:05:25.369Z,8.37
2019-04-07T15:07:57.947Z,7.87
2019-04-07T15:10:25.038Z,8.47
2019-04-07T15:12:53.579Z,7.23
2019-04-07T15:15:21.281Z,7.67
2019-04-07T15:17:48.814Z,7.80
2019-04-07T15:20:17.636Z,8.53
2019-04-07T15:22:46.831Z,7.53
2019-04-07T15:25:13.345Z,8.50
2019-04-07T15:27:40.473Z,7.70
2019-04-07T15:30:13.266Z,7.70
2019-04-07T15:32:38.275Z,7.87
2019-04-07T15:35:06.263Z,7.90
2019-04-07T15:37:33.666Z,7.73
2019-04-07T15:40:02.677Z,8.73
2019-04-07T15:42:36.020Z,8.03
2019-04-07T15:44:57.756Z,8.00
2019-04-07T15:47:24.456Z,7.60
2019-04-07T15:49:51.357Z,8.13
2019-04-07T15:52:19.593Z,8.03
2019-04-07T15:54:46.874Z,7.20
2019-04-07T15:57:13.507Z,9.10
2019-04-07T15:59:42.378Z,8.70
2019-04-07T16:02:11.229Z,7.37
2019-04-07T16:04:38.276Z,7.20
2019-04-07T16:07:05.190Z,7.83
2019-04-07T16:09:41.992Z,7.97
2019-04-07T16:12:01.907Z,7.80
2019-04-07T16:14:28.663Z,7.73
2019-04-07T16:16:55.520Z,7.33
2019-04-07T16:19:35.055Z,7.33
2019-04-07T16:21:52.322Z,7.17
2019-04-07T16:24:21.942Z,6.83
2019-04-07T16:26:47.939Z,8.00
2019-04-07T16:29:17.772Z,7.63
2019-04-07T16:31:43.648Z,8.00
2019-04-07T16:34:10.745Z,7.93
2019-04-07T16:36:38.394Z,7.73
2019-04-07T16:39:09.330Z,7.93
2019-04-07T16:41:36.794Z,7.50
2019-04-07T16:44:06.989Z,8.33
2019-04-07T16:46:32.532Z,8.50
2019-04-07T16:48:59.794Z,8.23
2019-04-07T16:51:29.439Z,7.40
2019-04-07T16:53:57.226Z,8.80
2019-04-07T16:56:23.843Z,8.43
2019-04-07T16:58:50.461Z,8.40
2019-04-07T17:01:17.425Z,9.00
2019-04-07T17:03:45.261Z,8.83
2019-04-07T17:06:12.470Z,8.80
2019-04-07T17:08:44.149Z,8.40
2019-04-07T17:11:11.128Z,8.40
2019-04-07T17:13:42.672Z,9.00
2019-04-07T17:16:10.996Z,9.40
2019-04-07T17:18:41.755Z,8.67
2019-04-07T17:21:13.988Z,8.73
2019-04-07T17:23:45.512Z,8.47
2019-04-07T17:26:13.640Z,8.30
2019-04-07T17:28:44.612Z,8.37
2019-04-07T17:31:09.645Z,8.57
2019-04-07T17:33:37.925Z,9.63
2019-04-07T17:36:06.620Z,8.83
2019-04-07T17:38:38.266Z,8.80
2019-04-07T17:41:07.923Z,8.47
2019-04-07T17:43:47.327Z,9.77
2019-04-07T17:46:06.665Z,8.50
2019-04-07T17:48:41.000Z,9.20
2019-04-07T17:51:07.760Z,9.90
2019-04-07T17:53:38.105Z,8.83
2019-04-07T17:56:07.165Z,10.60
2019-04-07T18:01:24.685Z,10.77
2019-04-07T18:03:56.151Z,11.23
2019-04-07T18:06:24.065Z,10.43
2019-04-07T18:09:03.969Z,11.37
2019-04-07T18:11:25.123Z,11.80
2019-04-07T18:13:56.648Z,11.73
2019-04-07T18:16:22.549Z,12.83
2019-04-07T18:18:56.258Z,12.97
2019-04-07T18:21:23.168Z,13.63
2019-04-07T18:23:53.933Z,14.27
2019-04-07T18:26:20.716Z,14.77
2019-04-07T18:28:53.343Z,16.43
2019-04-07T18:31:20.078Z,17.10
2019-04-07T18:33:50.742Z,17.40
2019-04-07T18:36:19.584Z,19.00
2019-04-07T18:38:50.260Z,21.13
2019-04-07T18:41:20.724Z,24.10
2019-04-07T18:43:57.821Z,26.70
2019-04-07T18:46:21.400Z,25.63
2019-04-07T18:48:50.177Z,25.57
2019-04-07T18:51:20.099Z,25.33
2019-04-07T18:53:48.900Z,23.87
2019-04-07T18:56:20.097Z,23.40
2019-04-07T18:58:50.865Z,22.23
2019-04-07T19:01:18.647Z,22.57
2019-04-07T19:03:51.040Z,23.13
2019-04-07T19:06:18.110Z,23.53
2019-04-07T19:08:49.418Z,21.57
2019-04-07T19:11:18.197Z,16.73
2019-04-07T19:13:47.984Z,14.60
2019-04-07T19:16:20.468Z,13.87
2019-04-07T19:18:48.807Z,15.13
2019-04-07T19:21:18.327Z,13.27
2019-04-07T19:23:47.257Z,14.57
2019-04-07T19:26:18.200Z,15.10
2019-04-07T19:28:46.560Z,17.37
2019-04-07T19:31:17.481Z,16.27
2019-04-07T19:33:45.593Z,13.73
2019-04-07T19:36:16.774Z,13.00
2019-04-07T19:38:47.503Z,12.70
2019-04-07T19:41:15.398Z,12.97
2019-04-07T19:43:44.657Z,12.13
2019-04-07T19:46:13.538Z,12.37
2019-04-07T19:48:42.754Z,12.90
2019-04-07T19:51:11.535Z,11.80
2019-04-07T19:53:43.246Z,11.50
2019-04-07T19:56:10.274Z,12.00
2019-04-07T19:58:39.459Z,11.60
2019-04-07T20:01:08.368Z,12.13
2019-04-07T20:03:39.876Z,11.60
2019-04-07T20:06:07.990Z,12.23
2019-04-07T20:08:37.435Z,13.03
2019-04-07T20:11:06.381Z,13.43
2019-04-07T20:13:39.501Z,12.23
2019-04-07T20:16:08.191Z,12.73
2019-04-07T20:18:37.402Z,12.40
2019-04-07T20:21:08.285Z,12.47
2019-04-07T20:23:37.123Z,11.60
2019-04-07T20:26:05.948Z,11.37
2019-04-07T20:28:34.561Z,12.90
2019-04-07T20:31:04.370Z,13.13
2019-04-07T20:33:34.452Z,12.63
2019-04-07T20:36:03.216Z,12.13
2019-04-07T20:38:31.932Z,13.30
2019-04-07T20:41:00.674Z,13.80
2019-04-07T20:43:29.265Z,14.80
2019-04-07T20:45:58.762Z,15.97
2019-04-07T20:48:31.601Z,16.03
2019-04-07T20:50:58.349Z,20.63
2019-04-07T20:53:29.697Z,18.00
2019-04-07T20:55:58.214Z,20.13
2019-04-07T20:58:41.606Z,19.10
2019-04-07T21:01:02.457Z,19.40
2019-04-07T21:03:28.878Z,22.60
2019-04-07T21:05:58.123Z,21.27
2019-04-07T21:08:30.223Z,22.80
2019-04-07T21:10:58.110Z,20.23
2019-04-07T21:13:26.795Z,19.93
2019-04-07T21:15:55.427Z,19.53
2019-04-07T21:18:24.349Z,19.23
2019-04-07T21:20:54.815Z,18.33
2019-04-07T21:23:23.801Z,19.73
2019-04-07T21:25:55.112Z,22.23
2019-04-07T21:28:23.360Z,22.00
2019-04-07T21:30:52.014Z,22.20
2019-04-07T21:33:23.792Z,22.50
2019-04-07T21:35:52.494Z,26.17
2019-04-07T21:38:24.252Z,25.73
2019-04-07T21:40:52.044Z,25.70
2019-04-07T21:43:24.314Z,24.30
2019-04-07T21:45:54.180Z,26.80
2019-04-07T21:48:22.083Z,27.60
2019-04-07T21:50:51.592Z,28.50
2019-04-07T21:53:22.531Z,27.33
2019-04-07T21:55:51.048Z,24.20
2019-04-07T21:58:22.024Z,25.30
2019-04-07T22:00:51.008Z,25.47
2019-04-07T22:03:21.031Z,27.93
2019-04-07T22:05:49.039Z,30.30
2019-04-07T22:08:19.970Z,30.77
2019-04-07T22:10:47.894Z,32.27
2019-04-07T22:13:15.515Z,31.97
2019-04-07T22:15:48.223Z,31.87
2019-04-07T22:18:11.143Z,30.87
2019-04-07T22:20:39.021Z,28.53
2019-04-07T22:23:09.279Z,26.97
2019-04-07T22:25:40.949Z,27.10
2019-04-07T22:28:08.079Z,27.50
2019-04-07T22:30:40.111Z,26.33
2019-04-07T22:33:04.143Z,26.73
2019-04-07T22:35:31.977Z,28.20
2019-04-07T22:37:58.914Z,29.07
2019-04-07T22:40:26.650Z,33.23
2019-04-07T22:42:54.164Z,40.27
2019-04-07T22:45:25.310Z,36.20
2019-04-07T22:47:52.441Z,33.93
2019-04-07T22:50:18.674Z,30.83
2019-04-07T22:52:49.201Z,30.27
2019-04-07T22:55:14.371Z,28.57
2019-04-07T22:57:41.958Z,29.43
2019-04-07T23:00:12.790Z,29.33
2019-04-07T23:02:42.308Z,27.47
2019-04-07T23:05:09.604Z,28.87
2019-04-07T23:07:36.273Z,27.33
2019-04-07T23:10:04.648Z,27.43
2019-04-07T23:12:32.849Z,28.33
2019-04-07T23:14:59.771Z,29.63
2019-04-07T23:17:26.353Z,27.33
2019-04-07T23:19:53.174Z,28.20
2019-04-07T23:22:20.126Z,29.37
2019-04-07T23:24:47.433Z,28.40
2019-04-07T23:27:14.569Z,27.87
2019-04-07T23:29:44.418Z,28.37
2019-04-07T23:32:11.705Z,28.37
2019-04-07T23:34:39.420Z,29.33
2019-04-07T23:37:06.540Z,27.67
2019-04-07T23:39:33.461Z,28.13
2019-04-07T23:42:00.692Z,30.23
2019-04-07T23:44:27.726Z,29.47
2019-04-07T23:46:55.079Z,30.90
2019-04-07T23:49:22.537Z,28.73
2019-04-07T23:51:49.276Z,30.57
2019-04-07T23:54:16.452Z,29.50
2019-04-07T23:56:43.801Z,29.47
2019-04-07T23:59:11.860Z,28.90
